Time;durP1;ratioP1;P1;durP2;ratioP2;P2;SDS_P1;SDS_P2;PMS_P1;PMS_P2;Temp;Humidity;BMP_temperature;BMP_pressure;BME280_temperature;BME280_humidity;BME280_pressure;Samples;Min_cycle;Max_cycle;Signal;HPM_P1;HPM_P2
2023/09/19 00:00:51;;;;;;;2.00;1.70;;;;;;;18.75;82.45;98708.75;7240738;40;20355;31
2023/09/19 00:06:15;;;;;;;4.05;1.50;;;;;;;18.73;82.04;98719.09;7187810;40;20489;31
2023/09/19 00:11:51;;;;;;;3.30;1.53;;;;;;;18.67;82.58;98727.38;7200300;40;20734;31
2023/09/19 00:17:31;;;;;;;3.50;1.60;;;;;;;18.63;83.01;98724.28;7151051;40;20479;31
2023/09/19 00:28:07;;;;;;;2.60;1.60;;;;;;;18.67;82.72;98733.66;7283916;39;20275;31
2023/09/19 00:38:48;;;;;;;3.80;1.70;;;;;;;18.67;82.78;98741.84;7233911;40;20268;31
2023/09/19 00:49:28;;;;;;;2.67;1.77;;;;;;;18.64;82.80;98739.59;7281220;40;20260;31
2023/09/19 00:55:05;;;;;;;4.43;1.70;;;;;;;18.70;82.17;98746.00;7256861;40;20316;31
2023/09/19 01:00:40;;;;;;;3.40;1.70;;;;;;;18.70;82.57;98748.75;7222695;40;20870;31
2023/09/19 01:11:24;;;;;;;2.17;1.70;;;;;;;18.63;83.33;98754.31;7272179;40;21173;31
2023/09/19 01:32:46;;;;;;;4.60;1.70;;;;;;;18.65;82.35;98767.72;7351395;39;20279;31
2023/09/19 01:38:19;;;;;;;2.50;1.70;;;;;;;18.71;83.27;98781.28;7341405;39;20321;31
2023/09/19 01:43:51;;;;;;;3.55;1.80;;;;;;;18.66;83.41;98794.78;7276423;39;20273;31
2023/09/19 01:54:40;;;;;;;3.57;1.90;;;;;;;18.71;84.05;98803.13;7218826;40;21113;31
2023/09/19 02:05:51;;;;;;;4.70;1.80;;;;;;;18.67;84.71;98798.34;7253650;40;20285;31
2023/09/19 02:11:26;;;;;;;3.43;1.83;;;;;;;18.65;84.51;98805.97;7299441;39;21242;31
2023/09/19 02:17:02;;;;;;;3.64;1.86;;;;;;;18.72;83.90;98804.81;7296619;39;20240;31
2023/09/19 02:22:26;;;;;;;2.13;1.67;;;;;;;18.72;84.25;98812.16;7256003;40;20252;31
2023/09/19 02:28:03;;;;;;;4.00;1.80;;;;;;;18.69;83.93;98810.69;7251051;40;20246;31
2023/09/19 02:33:24;;;;;;;3.88;1.80;;;;;;;18.70;84.15;98817.00;7254941;40;20310;31
2023/09/19 02:38:45;;;;;;;4.83;2.00;;;;;;;18.60;83.81;98817.56;7302658;39;20310;31
2023/09/19 02:44:20;;;;;;;4.27;1.77;;;;;;;18.48;83.07;98831.06;7297607;40;20292;31
2023/09/19 02:54:44;;;;;;;4.47;2.00;;;;;;;18.45;82.85;98838.88;7284606;40;21155;31
2023/09/19 03:00:21;;;;;;;5.70;2.00;;;;;;;18.50;83.33;98827.28;7264263;40;20292;31
2023/09/19 03:11:02;;;;;;;3.10;2.00;;;;;;;18.47;83.49;98836.78;7294712;39;20276;31
2023/09/19 03:16:37;;;;;;;3.47;2.07;;;;;;;18.46;83.43;98840.56;7264670;40;20337;31
2023/09/19 03:21:57;;;;;;;4.08;1.90;;;;;;;18.44;82.71;98846.22;7298642;39;20345;31
2023/09/19 03:27:17;;;;;;;3.73;2.20;;;;;;;18.42;82.42;98855.72;7279585;40;20837;31
2023/09/19 03:32:54;;;;;;;3.83;2.30;;;;;;;18.32;82.46;98855.38;7286992;39;20763;31
2023/09/19 03:38:25;;;;;;;5.67;2.10;;;;;;;18.31;82.04;98861.91;7218476;40;20249;31
2023/09/19 03:43:45;;;;;;;2.67;1.90;;;;;;;18.35;81.71;98868.56;7230564;40;20768;31
2023/09/19 03:49:19;;;;;;;7.20;2.50;;;;;;;18.29;81.14;98872.22;7252478;40;20279;31
2023/09/19 03:59:43;;;;;;;3.33;2.23;;;;;;;18.27;81.35;98872.44;7331426;39;21076;31
2023/09/19 04:10:24;;;;;;;4.60;2.00;;;;;;;18.05;80.47;98878.50;7338650;39;20289;31
2023/09/19 04:15:46;;;;;;;7.37;2.27;;;;;;;18.11;80.43;98883.91;7276288;40;20246;31
2023/09/19 04:21:20;;;;;;;6.03;2.30;;;;;;;18.09;80.50;98891.47;7275938;39;20279;31
2023/09/19 04:26:57;;;;;;;5.33;2.17;;;;;;;17.97;79.80;98890.53;7243448;40;20499;31
2023/09/19 04:32:17;;;;;;;7.40;2.23;;;;;;;17.98;79.93;98900.38;7015382;40;20335;31
2023/09/19 04:37:55;;;;;;;7.47;2.30;;;;;;;17.91;79.54;98894.97;7224470;40;20359;31
2023/09/19 04:43:31;;;;;;;4.03;2.23;;;;;;;17.94;79.26;98900.00;7245394;40;20261;31
2023/09/19 04:54:27;;;;;;;4.80;1.90;;;;;;;17.88;79.24;98908.22;7217302;40;20246;31
2023/09/19 05:05:29;;;;;;;4.30;2.10;;;;;;;17.95;78.99;98918.00;7243756;40;20256;31
2023/09/19 05:10:50;;;;;;;4.10;2.10;;;;;;;17.89;78.41;98926.25;7234786;40;20253;31
2023/09/19 05:16:26;;;;;;;5.30;2.00;;;;;;;17.81;78.93;98929.25;7267411;40;20331;31
2023/09/19 05:21:48;;;;;;;5.13;2.13;;;;;;;17.82;79.08;98944.53;7229762;40;20467;31
2023/09/19 05:27:08;;;;;;;7.27;2.37;;;;;;;17.81;78.80;98946.44;7243107;40;20416;31
2023/09/19 05:32:47;;;;;;;5.77;2.00;;;;;;;17.81;79.00;98949.19;7256434;40;20596;31
2023/09/19 05:38:22;;;;;;;7.40;2.60;;;;;;;17.78;79.75;98968.69;7262141;40;20272;31
2023/09/19 05:49:12;;;;;;;;;;;;;;;;;;;;;
2023/09/19 05:54:37;;;;;;;6.20;2.20;;;;;;;17.89;79.72;98980.78;7310140;39;20269;31
2023/09/19 05:59:55;;;;;;;7.30;2.00;;;;;;;17.90;79.40;99001.56;7257372;40;20362;31
2023/09/19 06:05:46;;;;;;;5.83;2.20;;;;;;;17.90;79.55;98994.19;7282006;39;20272;31
2023/09/19 06:11:09;;;;;;;5.25;1.95;;;;;;;17.95;78.79;98994.37;7178480;40;20847;31
2023/09/19 06:21:59;;;;;;;;;;;;;;;;;;;;;
2023/09/19 06:32:16;;;;;;;3.45;1.90;;;;;;;17.89;77.97;99014.34;7262331;39;20276;31
2023/09/19 06:42:55;;;;;;;4.75;1.58;;;;;;;17.79;78.33;99013.97;7385021;39;21442;31
2023/09/19 06:48:15;;;;;;;4.28;1.70;;;;;;;17.85;78.55;99015.00;7380408;39;21000;31
2023/09/19 06:53:34;;;;;;;4.10;1.95;;;;;;;17.91;77.98;99017.69;7345496;39;20496;31
2023/09/19 06:59:09;;;;;;;3.90;1.67;;;;;;;17.91;77.14;99025.87;7358688;39;20448;31
2023/09/19 07:04:47;;;;;;;5.20;1.73;;;;;;;18.01;76.68;99048.06;7306647;39;20477;31
2023/09/19 07:10:11;;;;;;;3.70;1.90;;;;;;;18.09;76.68;99051.56;7248809;40;20598;31
2023/09/19 07:15:46;;;;;;;4.70;1.87;;;;;;;18.27;76.33;99043.50;7277773;40;20271;31
2023/09/19 07:26:36;;;;;;;8.10;1.90;;;;;;;18.19;75.29;99073.78;7232501;40;20472;31
2023/09/19 07:32:13;;;;;;;4.80;1.80;;;;;;;18.18;75.09;99081.13;7274142;39;20246;31
2023/09/19 07:37:49;;;;;;;5.50;1.80;;;;;;;18.19;73.98;99081.97;7227934;40;20283;31
2023/09/19 07:43:08;;;;;;;3.50;1.80;;;;;;;18.23;74.34;99097.69;7242129;39;20245;31
2023/09/19 07:48:48;;;;;;;5.15;1.90;;;;;;;18.33;73.70;99094.47;7286257;39;20256;31
2023/09/19 07:54:04;;;;;;;3.10;1.70;;;;;;;18.40;73.16;99100.72;7280802;39;20241;31
2023/09/19 07:59:41;;;;;;;3.80;1.80;;;;;;;18.48;73.10;99101.28;7274011;39;20322;31
2023/09/19 08:05:17;;;;;;;5.50;1.90;;;;;;;18.47;72.78;99113.28;7268286;39;20234;31
2023/09/19 08:10:39;;;;;;;4.97;2.00;;;;;;;18.53;71.53;99113.47;7282387;40;20319;31
2023/09/19 08:15:57;;;;;;;4.53;2.00;;;;;;;18.54;70.73;99117.91;7272988;40;20485;31
2023/09/19 08:26:33;;;;;;;3.15;1.70;;;;;;;18.61;69.84;99138.63;7285427;40;20269;31
2023/09/19 08:32:06;;;;;;;3.70;1.70;;;;;;;18.72;69.59;99129.75;7301647;40;20353;31
2023/09/19 08:37:41;;;;;;;4.40;1.90;;;;;;;18.84;68.78;99127.97;7264802;40;20309;31
2023/09/19 08:43:16;;;;;;;5.60;2.07;;;;;;;18.91;67.81;99134.22;7258000;40;20279;31
2023/09/19 08:54:27;;;;;;;4.90;2.00;;;;;;;18.70;67.90;99142.78;7258382;40;20245;31
2023/09/19 09:00:06;;;;;;;4.40;1.80;;;;;;;18.73;67.55;99138.78;7191428;40;20236;31
2023/09/19 09:05:41;;;;;;;4.90;2.20;;;;;;;18.95;66.49;99145.56;7204665;40;20246;31
2023/09/19 09:11:16;;;;;;;5.60;2.20;;;;;;;18.84;66.28;99152.56;7151951;40;20243;31
2023/09/19 09:16:49;;;;;;;3.50;2.10;;;;;;;18.91;66.96;99144.31;7145613;40;20714;31
2023/09/19 09:22:24;;;;;;;5.80;2.10;;;;;;;19.06;66.22;99138.53;7198456;40;20706;31
2023/09/19 09:28:01;;;;;;;6.60;2.20;;;;;;;19.16;66.49;99147.06;7208640;40;20876;31
2023/09/19 09:33:41;;;;;;;6.70;2.10;;;;;;;19.50;64.99;99141.09;7207696;40;20333;31
2023/09/19 09:39:15;;;;;;;4.33;2.10;;;;;;;19.65;64.50;99141.59;7252999;40;20805;31
2023/09/19 09:44:35;;;;;;;5.25;2.60;;;;;;;19.77;64.06;99131.56;7294303;39;20240;31
2023/09/19 09:50:17;;;;;;;5.32;2.15;;;;;;;19.78;63.68;99135.97;7296227;39;20340;31
2023/09/19 09:56:18;;;;;;;7.35;2.30;;;;;;;20.01;62.36;99148.94;7262483;40;20245;31
2023/09/19 10:07:49;;;;;;;4.77;2.20;;;;;;;20.07;63.01;99156.25;7174164;40;20552;31
2023/09/19 10:18:22;;;;;;;3.47;1.80;;;;;;;20.36;62.76;99135.47;7208243;40;21121;31
2023/09/19 10:24:14;;;;;;;3.53;1.90;;;;;;;20.32;61.49;99136.16;7318051;39;20279;31
2023/09/19 10:35:07;;;;;;;5.32;1.80;;;;;;;20.52;59.92;99125.81;7218500;40;21137;31
2023/09/19 10:40:43;;;;;;;3.70;1.87;;;;;;;20.71;61.25;99123.84;7259020;40;20838;31
2023/09/19 10:51:24;;;;;;;6.74;1.90;;;;;;;20.88;59.46;99122.09;7276133;40;20807;31
2023/09/19 10:57:05;;;;;;;3.80;1.60;;;;;;;20.97;58.03;99123.44;7276554;39;20315;31
2023/09/19 11:07:44;;;;;;;3.70;1.75;;;;;;;20.96;56.57;99121.75;7300214;39;20562;31
2023/09/19 11:13:15;;;;;;;4.25;1.60;;;;;;;21.37;56.76;99113.47;7303240;39;20279;31
2023/09/19 11:19:23;;;;;;;3.70;1.80;;;;;;;21.71;57.21;99100.00;7276484;40;20272;31
2023/09/19 11:24:46;;;;;;;2.30;1.20;;;;;;;22.02;55.26;99096.88;7296633;40;20651;31
2023/09/19 11:30:43;;;;;;;3.38;1.44;;;;;;;22.11;52.80;99095.41;7321300;39;20462;31
2023/09/19 11:36:19;;;;;;;3.15;1.80;;;;;;;22.38;52.27;99093.72;7280203;39;20252;31
2023/09/19 11:41:56;;;;;;;3.00;1.52;;;;;;;22.26;52.02;99081.97;7023191;40;20249;31
2023/09/19 11:47:32;;;;;;;4.25;2.08;;;;;;;22.02;52.44;99074.91;7203589;40;20268;31
2023/09/19 11:53:11;;;;;;;5.82;1.80;;;;;;;22.13;52.34;99073.19;7230992;40;20249;31
2023/09/19 11:58:48;;;;;;;11.83;2.07;;;;;;;21.77;53.74;99063.34;7269787;40;20240;31
2023/09/19 12:04:33;;;;;;;2.95;1.50;;;;;;;22.17;53.62;99060.62;7236794;40;20342;31
2023/09/19 12:10:11;;;;;;;2.78;1.40;;;;;;;22.37;53.64;99053.63;7239070;40;20246;31
2023/09/19 12:15:47;;;;;;;4.40;1.74;;;;;;;22.61;54.89;99062.56;7219383;40;20348;31
2023/09/19 12:21:07;;;;;;;2.80;1.60;;;;;;;22.39;53.65;99059.69;7234067;40;20747;31
2023/09/19 12:26:43;;;;;;;3.10;1.62;;;;;;;22.37;54.59;99048.13;7249196;39;20854;31
2023/09/19 12:32:22;;;;;;;3.20;1.53;;;;;;;22.47;52.42;99045.56;7286587;40;20794;31
2023/09/19 12:37:59;;;;;;;3.20;1.85;;;;;;;22.47;52.79;99041.97;7258486;40;20815;31
2023/09/19 12:48:56;;;;;;;4.20;1.60;;;;;;;22.58;52.52;99026.50;7224098;40;20258;31
2023/09/19 12:54:15;;;;;;;3.50;1.52;;;;;;;22.80;53.60;99024.72;7244142;40;20244;31
2023/09/19 12:59:48;;;;;;;4.25;1.80;;;;;;;22.91;52.60;99032.87;7329371;39;20245;31
2023/09/19 13:05:25;;;;;;;3.83;1.70;;;;;;;22.96;51.83;99026.63;7299687;40;20255;31
2023/09/19 13:11:17;;;;;;;3.45;1.50;;;;;;;22.61;52.30;99029.59;7215276;40;20289;31
2023/09/19 13:17:15;;;;;;;3.10;1.67;;;;;;;22.57;51.78;99027.59;7199155;40;20258;31
2023/09/19 13:23:00;;;;;;;4.97;1.70;;;;;;;22.62;51.30;99022.19;7217969;40;20238;31
2023/09/19 13:28:19;;;;;;;3.30;1.73;;;;;;;22.35;52.85;99044.78;7177436;40;20292;31
2023/09/19 13:33:59;;;;;;;2.70;1.50;;;;;;;22.45;53.34;99022.19;7203193;40;20386;31
2023/09/19 13:39:50;;;;;;;2.90;1.60;;;;;;;22.75;53.32;99016.41;7209136;40;20390;31
2023/09/19 13:50:14;;;;;;;3.87;1.80;;;;;;;22.94;52.39;99014.22;7219050;40;20268;31
2023/09/19 13:55:53;;;;;;;2.00;1.50;;;;;;;22.66;52.41;99002.22;7259672;40;21107;31
2023/09/19 14:01:29;;;;;;;2.75;1.50;;;;;;;22.45;53.91;99005.69;7295323;39;20449;31
2023/09/19 14:06:49;;;;;;;3.72;1.58;;;;;;;22.64;53.88;99009.03;7222557;40;20266;31
2023/09/19 14:12:27;;;;;;;3.00;1.50;;;;;;;22.76;52.95;98994.16;7288331;39;20241;31
2023/09/19 14:17:48;;;;;;;4.37;1.62;;;;;;;22.55;53.61;98997.63;7244655;40;20298;31
2023/09/19 14:28:25;;;;;;;2.33;1.55;;;;;;;22.41;54.57;98994.37;7324506;39;20252;31
2023/09/19 14:33:44;;;;;;;2.13;1.50;;;;;;;22.44;54.88;98988.37;7312447;39;20248;31
2023/09/19 14:39:20;;;;;;;2.32;1.40;;;;;;;22.35;55.53;98987.13;7339981;39;20347;31
2023/09/19 14:44:55;;;;;;;3.70;1.50;;;;;;;22.32;55.56;98970.31;7299821;40;20256;31
2023/09/19 14:50:12;;;;;;;3.47;1.52;;;;;;;22.48;55.89;98985.94;7288039;39;21081;31
2023/09/19 14:55:51;;;;;;;2.80;1.40;;;;;;;22.42;54.88;98974.03;7283294;40;20378;31
2023/09/19 15:01:23;;;;;;;2.54;1.42;;;;;;;22.48;55.40;98963.97;7253002;40;20368;31
2023/09/19 15:06:41;;;;;;;3.22;1.55;;;;;;;22.58;54.75;98971.56;7277489;39;20378;31
2023/09/19 15:12:03;;;;;;;1.87;1.30;;;;;;;22.46;54.60;98968.91;7306921;39;20280;31
2023/09/19 15:17:34;;;;;;;1.90;1.38;;;;;;;22.48;55.22;98962.06;7278099;40;20339;31
2023/09/19 15:23:09;;;;;;;2.53;1.40;;;;;;;22.41;55.71;98955.09;7310124;39;20755;31
2023/09/19 15:28:45;;;;;;;3.00;1.45;;;;;;;22.35;55.55;98956.91;7260000;39;20467;31
2023/09/19 15:34:21;;;;;;;3.40;1.60;;;;;;;22.37;54.66;98949.25;7220538;40;20781;31
2023/09/19 15:39:54;;;;;;;2.25;1.45;;;;;;;22.40;55.16;98950.66;7156895;40;20778;31
2023/09/19 15:45:30;;;;;;;3.17;1.40;;;;;;;22.36;55.15;98933.00;7197483;40;20416;31
2023/09/19 15:51:11;;;;;;;1.40;1.30;;;;;;;22.37;54.44;98932.78;7207679;40;20242;31
2023/09/19 15:56:28;;;;;;;3.08;1.42;;;;;;;22.30;54.22;98937.59;7193419;40;20252;31
2023/09/19 16:01:50;;;;;;;6.57;1.65;;;;;;;22.16;54.34;98930.75;7198653;40;20261;31
2023/09/19 16:07:25;;;;;;;2.65;1.30;;;;;;;22.12;53.74;98923.25;7240133;40;20238;31
2023/09/19 16:13:01;;;;;;;2.70;1.25;;;;;;;22.09;54.23;98921.00;7264620;40;20244;31
2023/09/19 16:18:22;;;;;;;2.40;1.60;;;;;;;22.05;54.27;98917.94;7282197;39;20264;31
2023/09/19 16:23:58;;;;;;;2.35;1.40;;;;;;;21.96;55.76;98924.91;7278268;40;20329;31
2023/09/19 16:29:36;;;;;;;2.50;1.30;;;;;;;21.94;55.33;98927.88;7266958;40;20237;31
2023/09/19 16:35:14;;;;;;;2.00;1.40;;;;;;;21.87;55.14;98921.69;7313689;39;20384;31
2023/09/19 16:40:51;;;;;;;2.78;1.52;;;;;;;21.81;54.82;98933.63;7237396;40;20335;31
2023/09/19 16:46:29;;;;;;;3.42;1.30;;;;;;;21.77;55.52;98918.75;7189613;40;20253;31
2023/09/19 16:52:05;;;;;;;5.05;1.65;;;;;;;21.71;55.24;98924.41;7141681;40;20269;31
2023/09/19 16:57:42;;;;;;;5.22;1.45;;;;;;;21.64;55.50;98920.94;7220259;40;20242;31
2023/09/19 17:03:14;;;;;;;2.50;1.25;;;;;;;21.56;55.20;98914.78;7226418;40;20351;31
2023/09/19 17:13:54;;;;;;;2.53;1.33;;;;;;;21.48;56.15;98936.28;7277200;40;21142;31
2023/09/19 17:24:18;;;;;;;2.12;1.40;;;;;;;21.46;56.55;98942.00;7325919;39;21262;31
2023/09/19 17:34:54;;;;;;;5.45;1.50;;;;;;;21.31;57.22;98930.72;7354000;39;20320;31
2023/09/19 17:40:15;;;;;;;2.08;1.30;;;;;;;21.33;57.70;98941.44;7359185;39;20256;31
2023/09/19 17:50:56;;;;;;;4.30;1.67;;;;;;;21.23;57.87;98953.03;7384543;39;20903;31
2023/09/19 17:56:32;;;;;;;2.28;1.50;;;;;;;21.12;58.22;98956.59;7314395;39;20707;31
2023/09/19 18:02:07;;;;;;;3.85;1.40;;;;;;;21.03;59.09;98952.56;7295269;39;20479;31
2023/09/19 18:07:47;;;;;;;2.55;1.35;;;;;;;20.92;59.19;98953.41;7318762;39;20306;31
2023/09/19 18:13:20;;;;;;;2.90;1.50;;;;;;;20.83;60.08;98954.84;7046856;40;20253;31
2023/09/19 18:18:55;;;;;;;2.90;1.73;;;;;;;20.65;60.46;98970.31;7228380;40;20790;31
2023/09/19 18:24:31;;;;;;;2.35;1.50;;;;;;;20.41;61.41;98967.75;7268928;40;20713;31
2023/09/19 18:29:52;;;;;;;2.10;1.35;;;;;;;20.36;62.25;98975.88;7243295;40;20790;31
2023/09/19 18:35:31;;;;;;;2.65;1.80;;;;;;;20.17;61.92;98986.03;7249566;40;20257;31
2023/09/19 18:41:08;;;;;;;3.70;1.90;;;;;;;20.13;62.19;98987.56;7245106;40;20389;31
2023/09/19 18:46:30;;;;;;;2.75;1.80;;;;;;;20.09;63.34;98976.25;7226493;40;20339;31
2023/09/19 19:02:14;;;;;;;2.05;1.40;;;;;;;20.15;62.39;98982.66;7354962;39;20271;31
2023/09/19 19:07:35;;;;;;;2.60;1.40;;;;;;;20.22;62.40;98995.22;7340665;39;21338;31
2023/09/19 19:13:10;;;;;;;2.20;1.10;;;;;;;20.14;62.06;98997.44;7321205;39;20259;31
2023/09/19 19:18:50;;;;;;;8.90;1.55;;;;;;;20.09;61.28;99005.53;7219621;40;20267;31
2023/09/19 19:24:28;;;;;;;2.05;1.35;;;;;;;20.07;61.65;99002.16;7225605;40;20248;31
2023/09/19 19:41:00;;;;;;;3.05;1.65;;;;;;;20.05;63.13;99007.84;7256387;40;20241;31
2023/09/19 19:46:25;;;;;;;2.47;1.42;;;;;;;19.92;63.03;99010.78;7244023;40;20249;31
2023/09/19 19:51:59;;;;;;;2.62;1.50;;;;;;;19.87;62.52;99001.63;7316439;39;20399;31
2023/09/19 19:57:38;;;;;;;2.67;1.40;;;;;;;19.88;62.26;99017.78;7266672;40;20636;31
2023/09/19 20:02:58;;;;;;;2.06;1.28;;;;;;;19.87;62.49;99023.50;7272237;39;20335;31
2023/09/19 20:08:45;;;;;;;;;;;;;;;;;;;;;
2023/09/19 20:19:16;;;;;;;3.72;1.34;;;;;;;19.90;62.45;99023.03;7233094;39;20265;31
2023/09/19 20:24:47;;;;;;;2.30;1.50;;;;;;;19.82;62.50;99020.63;7282374;39;20236;31
2023/09/19 20:30:23;;;;;;;2.13;1.27;;;;;;;19.78;61.82;99004.69;7296420;39;20343;31
2023/09/19 20:36:00;;;;;;;6.83;1.80;;;;;;;19.76;61.89;99000.47;7261595;40;20319;31
2023/09/19 20:41:38;;;;;;;1.70;1.20;;;;;;;19.76;63.35;99004.06;7228247;40;21069;31
2023/09/19 20:46:58;;;;;;;4.20;1.40;;;;;;;19.78;62.31;99015.63;7194782;40;20384;31
2023/09/19 20:52:21;;;;;;;2.37;1.60;;;;;;;19.76;63.67;99020.47;7218389;40;20245;31
2023/09/19 20:57:58;;;;;;;4.68;1.40;;;;;;;19.68;63.21;99017.22;7251778;40;20780;31
2023/09/19 21:03:33;;;;;;;3.20;1.50;;;;;;;19.65;62.22;99010.31;7262653;39;20764;31
2023/09/19 21:08:53;;;;;;;1.90;1.20;;;;;;;19.69;62.35;99024.38;7313378;39;20282;31
2023/09/19 21:19:34;;;;;;;2.00;1.30;;;;;;;19.63;62.98;99009.69;7326950;39;20513;31
2023/09/19 21:25:09;;;;;;;2.70;1.60;;;;;;;19.60;63.77;99004.69;7302562;40;20362;31
2023/09/19 21:30:44;;;;;;;1.97;1.40;;;;;;;19.54;64.13;99005.59;7327442;39;21224;31
2023/09/19 21:36:24;;;;;;;3.30;1.40;;;;;;;19.53;63.53;99014.88;7237732;40;20390;31
2023/09/19 21:42:00;;;;;;;3.33;1.62;;;;;;;19.44;63.26;99007.22;7247781;40;20240;31
2023/09/19 21:47:34;;;;;;;2.33;1.50;;;;;;;19.41;63.43;99005.72;7196110;40;20376;31
2023/09/19 21:53:11;;;;;;;2.27;1.50;;;;;;;19.37;63.77;99016.28;7176658;40;20261;31
2023/09/19 21:58:48;;;;;;;3.87;1.60;;;;;;;19.41;63.79;99015.81;7187414;40;20673;31
2023/09/19 22:04:24;;;;;;;2.28;1.60;;;;;;;19.43;63.50;99008.25;7259970;40;20660;31
2023/09/19 22:09:59;;;;;;;2.60;1.50;;;;;;;19.39;63.58;99005.13;7283118;40;20287;31
2023/09/19 22:15:23;;;;;;;4.47;1.58;;;;;;;19.35;63.38;99003.91;7227677;40;20241;31
2023/09/19 22:20:48;;;;;;;2.40;1.55;;;;;;;19.32;65.09;98990.69;7229309;40;21048;31
2023/09/19 22:26:18;;;;;;;2.13;1.47;;;;;;;19.25;65.03;99004.44;7267737;40;21555;31
2023/09/19 22:31:42;;;;;;;2.58;1.67;;;;;;;19.27;65.14;99013.25;7271394;39;20248;31
2023/09/19 22:37:14;;;;;;;2.33;1.50;;;;;;;19.20;64.43;99006.19;7259483;40;20257;31
2023/09/19 22:42:50;;;;;;;3.46;1.54;;;;;;;19.07;65.50;99000.84;7240003;40;20265;31
2023/09/19 22:48:29;;;;;;;2.60;1.40;;;;;;;18.88;66.76;98999.97;7214712;40;20755;31
2023/09/19 22:54:05;;;;;;;2.80;1.40;;;;;;;18.82;65.64;99009.91;7252611;39;20703;31
2023/09/19 22:59:40;;;;;;;2.43;1.40;;;;;;;18.87;65.81;99007.34;7246783;40;20241;31
2023/09/19 23:05:19;;;;;;;3.10;1.70;;;;;;;18.97;65.29;99001.38;7227593;40;20254;31
2023/09/19 23:10:52;;;;;;;3.30;1.77;;;;;;;19.03;65.94;98999.62;7208667;40;20256;31
2023/09/19 23:16:33;;;;;;;2.34;1.52;;;;;;;18.98;66.07;98996.75;7254955;40;20253;31
2023/09/19 23:38:47;;;;;;;2.50;1.40;;;;;;;18.92;65.48;98988.37;7321918;39;20274;31
2023/09/19 23:44:23;;;;;;;1.50;1.40;;;;;;;18.85;65.88;98998.56;7242801;40;20319;31
